sensor_id;sensor_type;location;lat;lon;timestamp;pressure;altitude;pressure_sealevel;temperature;humidity
48926;BME280;39838;59.938;30.642;2022-10-16T00:00:41;100944.66;;;9.70;80.46
48926;BME280;39838;59.938;30.642;2022-10-16T00:03:09;100955.88;;;9.69;80.10
48926;BME280;39838;59.938;30.642;2022-10-16T00:05:41;100948.06;;;9.67;80.09
48926;BME280;39838;59.938;30.642;2022-10-16T00:08:11;100927.13;;;9.50;80.34
48926;BME280;39838;59.938;30.642;2022-10-16T00:10:39;100947.22;;;9.68;80.58
48926;BME280;39838;59.938;30.642;2022-10-16T00:13:07;100947.19;;;9.64;80.13
48926;BME280;39838;59.938;30.642;2022-10-16T00:15:36;100950.63;;;9.63;80.82
48926;BME280;39838;59.938;30.642;2022-10-16T00:18:04;100950.56;;;9.60;80.51
48926;BME280;39838;59.938;30.642;2022-10-16T00:20:34;100948.84;;;9.57;80.70
48926;BME280;39838;59.938;30.642;2022-10-16T00:23:22;100944.44;;;9.51;80.79
48926;BME280;39838;59.938;30.642;2022-10-16T00:25:56;100952.19;;;9.48;80.80
48926;BME280;39838;59.938;30.642;2022-10-16T00:28:24;100955.63;;;9.47;80.81
48926;BME280;39838;59.938;30.642;2022-10-16T00:30:51;100947.00;;;9.48;81.15
48926;BME280;39838;59.938;30.642;2022-10-16T00:33:18;100947.88;;;9.49;81.11
48926;BME280;39838;59.938;30.642;2022-10-16T00:35:45;100957.34;;;9.47;81.25
48926;BME280;39838;59.938;30.642;2022-10-16T00:38:13;100926.91;;;9.30;81.14
48926;BME280;39838;59.938;30.642;2022-10-16T00:40:42;100946.94;;;9.42;81.08
48926;BME280;39838;59.938;30.642;2022-10-16T00:43:13;100946.03;;;9.40;81.28
48926;BME280;39838;59.938;30.642;2022-10-16T00:45:41;100948.63;;;9.39;81.30
48926;BME280;39838;59.938;30.642;2022-10-16T00:48:11;100954.66;;;9.39;80.94
48926;BME280;39838;59.938;30.642;2022-10-16T00:50:39;100949.47;;;9.38;81.73
48926;BME280;39838;59.938;30.642;2022-10-16T00:53:09;100946.88;;;9.38;81.53
48926;BME280;39838;59.938;30.642;2022-10-16T00:55:37;100943.41;;;9.37;81.41
48926;BME280;39838;59.938;30.642;2022-10-16T00:58:06;100941.63;;;9.35;81.09
48926;BME280;39838;59.938;30.642;2022-10-16T01:00:33;100939.91;;;9.34;80.95
48926;BME280;39838;59.938;30.642;2022-10-16T01:03:02;100924.25;;;9.27;81.55
48926;BME280;39838;59.938;30.642;2022-10-16T01:05:35;100932.97;;;9.33;81.13
48926;BME280;39838;59.938;30.642;2022-10-16T01:08:12;100871.13;;;8.93;81.53
48926;BME280;39838;59.938;30.642;2022-10-16T01:10:42;100939.00;;;9.30;81.55
48926;BME280;39838;59.938;30.642;2022-10-16T01:13:18;100938.13;;;9.28;80.84
48926;BME280;39838;59.938;30.642;2022-10-16T01:15:52;100933.78;;;9.27;81.14
48926;BME280;39838;59.938;30.642;2022-10-16T01:18:28;100937.22;;;9.26;81.80
48926;BME280;39838;59.938;30.642;2022-10-16T01:21:01;100932.00;;;9.23;81.71
48926;BME280;39838;59.938;30.642;2022-10-16T01:23:37;100935.53;;;9.28;82.00
48926;BME280;39838;59.938;30.642;2022-10-16T01:26:18;100926.84;;;9.27;81.89
48926;BME280;39838;59.938;30.642;2022-10-16T01:28:53;100931.19;;;9.27;80.89
48926;BME280;39838;59.938;30.642;2022-10-16T01:31:25;100932.03;;;9.27;81.78
48926;BME280;39838;59.938;30.642;2022-10-16T01:33:57;100911.19;;;9.18;81.88
48926;BME280;39838;59.938;30.642;2022-10-16T01:36:30;100932.94;;;9.28;81.38
48926;BME280;39838;59.938;30.642;2022-10-16T01:39:03;100927.72;;;9.26;81.11
48926;BME280;39838;59.938;30.642;2022-10-16T01:41:33;100920.72;;;9.19;81.62
48926;BME280;39838;59.938;30.642;2022-10-16T01:44:07;100932.03;;;9.26;82.13
48926;BME280;39838;59.938;30.642;2022-10-16T01:46:38;100933.81;;;9.28;81.65
48926;BME280;39838;59.938;30.642;2022-10-16T01:49:06;100932.09;;;9.32;81.55
48926;BME280;39838;59.938;30.642;2022-10-16T01:51:35;100933.84;;;9.35;81.32
48926;BME280;39838;59.938;30.642;2022-10-16T01:54:06;100932.16;;;9.35;81.00
48926;BME280;39838;59.938;30.642;2022-10-16T01:56:35;100919.94;;;9.25;81.65
48926;BME280;39838;59.938;30.642;2022-10-16T01:59:06;100899.03;;;9.14;81.47
48926;BME280;39838;59.938;30.642;2022-10-16T02:01:39;100932.09;;;9.29;81.74
48926;BME280;39838;59.938;30.642;2022-10-16T02:04:11;100938.94;;;9.25;81.62
48926;BME280;39838;59.938;30.642;2022-10-16T02:06:40;100934.63;;;9.24;81.16
48926;BME280;39838;59.938;30.642;2022-10-16T02:09:07;100932.88;;;9.23;81.57
48926;BME280;39838;59.938;30.642;2022-10-16T02:11:35;100935.47;;;9.23;81.21
48926;BME280;39838;59.938;30.642;2022-10-16T02:14:05;100934.53;;;9.20;82.20
48926;BME280;39838;59.938;30.642;2022-10-16T02:16:34;100938.00;;;9.20;81.54
48926;BME280;39838;59.938;30.642;2022-10-16T02:19:01;100932.88;;;9.22;82.25
48926;BME280;39838;59.938;30.642;2022-10-16T02:21:33;100931.09;;;9.19;81.12
48926;BME280;39838;59.938;30.642;2022-10-16T02:24:10;100919.84;;;9.17;81.64
48926;BME280;39838;59.938;30.642;2022-10-16T02:26:43;100916.28;;;9.09;81.14
48926;BME280;39838;59.938;30.642;2022-10-16T02:29:17;100918.03;;;9.12;81.55
48926;BME280;39838;59.938;30.642;2022-10-16T02:31:50;100916.22;;;9.06;81.84
48926;BME280;39838;59.938;30.642;2022-10-16T02:34:19;100911.88;;;9.02;81.99
48926;BME280;39838;59.938;30.642;2022-10-16T02:36:48;100913.59;;;9.01;82.03
48926;BME280;39838;59.938;30.642;2022-10-16T02:39:18;100910.06;;;8.96;81.98
48926;BME280;39838;59.938;30.642;2022-10-16T02:41:45;100909.13;;;8.91;82.06
48926;BME280;39838;59.938;30.642;2022-10-16T02:44:14;100912.50;;;8.86;82.61
48926;BME280;39838;59.938;30.642;2022-10-16T02:46:41;100909.88;;;8.83;82.55
48926;BME280;39838;59.938;30.642;2022-10-16T02:49:08;100908.16;;;8.82;82.00
48926;BME280;39838;59.938;30.642;2022-10-16T02:51:35;100909.81;;;8.77;82.01
48926;BME280;39838;59.938;30.642;2022-10-16T02:54:02;100906.28;;;8.73;82.21
48926;BME280;39838;59.938;30.642;2022-10-16T02:56:29;100907.13;;;8.72;82.70
48926;BME280;39838;59.938;30.642;2022-10-16T02:58:57;100905.38;;;8.69;82.38
48926;BME280;39838;59.938;30.642;2022-10-16T03:01:25;100904.50;;;8.67;82.59
48926;BME280;39838;59.938;30.642;2022-10-16T03:03:52;100908.78;;;8.65;82.63
48926;BME280;39838;59.938;30.642;2022-10-16T03:06:19;100896.66;;;8.64;82.65
48926;BME280;39838;59.938;30.642;2022-10-16T03:08:47;100900.97;;;8.64;83.43
48926;BME280;39838;59.938;30.642;2022-10-16T03:11:14;100895.81;;;8.64;83.09
48926;BME280;39838;59.938;30.642;2022-10-16T03:13:41;100893.19;;;8.62;83.38
48926;BME280;39838;59.938;30.642;2022-10-16T03:16:08;100885.44;;;8.62;82.80
48926;BME280;39838;59.938;30.642;2022-10-16T03:18:37;100894.06;;;8.61;83.73
48926;BME280;39838;59.938;30.642;2022-10-16T03:21:04;100891.41;;;8.60;83.78
48926;BME280;39838;59.938;30.642;2022-10-16T03:23:31;100895.72;;;8.59;82.98
48926;BME280;39838;59.938;30.642;2022-10-16T03:25:58;100887.94;;;8.58;83.28
48926;BME280;39838;59.938;30.642;2022-10-16T03:28:25;100883.63;;;8.58;82.90
48926;BME280;39838;59.938;30.642;2022-10-16T03:30:52;100892.25;;;8.57;83.32
48926;BME280;39838;59.938;30.642;2022-10-16T03:33:19;100888.78;;;8.55;83.83
48926;BME280;39838;59.938;30.642;2022-10-16T03:35:52;100880.06;;;8.48;83.85
48926;BME280;39838;59.938;30.642;2022-10-16T03:38:20;100893.88;;;8.49;83.69
48926;BME280;39838;59.938;30.642;2022-10-16T03:40:47;100884.41;;;8.51;84.22
48926;BME280;39838;59.938;30.642;2022-10-16T03:43:14;100893.91;;;8.52;83.47
48926;BME280;39838;59.938;30.642;2022-10-16T03:45:42;100888.72;;;8.52;83.36
48926;BME280;39838;59.938;30.642;2022-10-16T03:48:09;100890.47;;;8.53;83.54
48926;BME280;39838;59.938;30.642;2022-10-16T03:50:36;100891.31;;;8.52;83.63
48926;BME280;39838;59.938;30.642;2022-10-16T03:53:05;100887.81;;;8.48;83.82
48926;BME280;39838;59.938;30.642;2022-10-16T03:55:32;100879.06;;;8.40;84.10
48926;BME280;39838;59.938;30.642;2022-10-16T03:57:59;100898.13;;;8.45;84.01
48926;BME280;39838;59.938;30.642;2022-10-16T04:00:26;100898.97;;;8.43;84.17
48926;BME280;39838;59.938;30.642;2022-10-16T04:02:53;100894.63;;;8.42;84.00
48926;BME280;39838;59.938;30.642;2022-10-16T04:05:20;100894.63;;;8.40;84.45
48926;BME280;39838;59.938;30.642;2022-10-16T04:07:47;100887.66;;;8.39;83.77
48926;BME280;39838;59.938;30.642;2022-10-16T04:10:16;100891.97;;;8.37;84.03
48926;BME280;39838;59.938;30.642;2022-10-16T04:12:43;100886.75;;;8.36;84.33
48926;BME280;39838;59.938;30.642;2022-10-16T04:15:10;100878.13;;;8.35;84.34
48926;BME280;39838;59.938;30.642;2022-10-16T04:17:37;100884.13;;;8.34;84.42
48926;BME280;39838;59.938;30.642;2022-10-16T04:20:05;100885.00;;;8.35;84.06
48926;BME280;39838;59.938;30.642;2022-10-16T04:22:33;100869.47;;;8.35;84.82
48926;BME280;39838;59.938;30.642;2022-10-16T04:25:00;100880.72;;;8.35;84.47
48926;BME280;39838;59.938;30.642;2022-10-16T04:27:30;100880.63;;;8.32;84.78
48926;BME280;39838;59.938;30.642;2022-10-16T04:29:57;100880.59;;;8.29;84.49
48926;BME280;39838;59.938;30.642;2022-10-16T04:32:25;100877.91;;;8.25;84.49
48926;BME280;39838;59.938;30.642;2022-10-16T04:34:52;100875.31;;;8.21;84.75
48926;BME280;39838;59.938;30.642;2022-10-16T04:37:23;100870.91;;;8.17;84.64
48926;BME280;39838;59.938;30.642;2022-10-16T04:39:50;100866.56;;;8.13;84.43
48926;BME280;39838;59.938;30.642;2022-10-16T04:42:17;100862.19;;;8.12;84.38
48926;BME280;39838;59.938;30.642;2022-10-16T04:44:46;100862.16;;;8.09;85.02
48926;BME280;39838;59.938;30.642;2022-10-16T04:47:13;100866.47;;;8.09;85.12
48926;BME280;39838;59.938;30.642;2022-10-16T04:49:40;100868.19;;;8.10;84.63
48926;BME280;39838;59.938;30.642;2022-10-16T04:52:07;100868.19;;;8.08;84.57
48926;BME280;39838;59.938;30.642;2022-10-16T04:54:35;100874.22;;;8.07;84.69
48926;BME280;39838;59.938;30.642;2022-10-16T04:57:02;100864.72;;;8.06;84.78
48926;BME280;39838;59.938;30.642;2022-10-16T04:59:30;100854.31;;;8.05;85.01
48926;BME280;39838;59.938;30.642;2022-10-16T05:01:59;100847.38;;;8.02;84.91
48926;BME280;39838;59.938;30.642;2022-10-16T05:04:26;100848.22;;;8.00;84.63
48926;BME280;39838;59.938;30.642;2022-10-16T05:06:53;100852.50;;;7.99;85.40
48926;BME280;39838;59.938;30.642;2022-10-16T05:09:20;100850.81;;;8.01;85.07
48926;BME280;39838;59.938;30.642;2022-10-16T05:11:47;100854.31;;;8.05;85.26
48926;BME280;39838;59.938;30.642;2022-10-16T05:14:14;100858.69;;;8.07;85.83
48926;BME280;39838;59.938;30.642;2022-10-16T05:16:41;100857.06;;;8.14;85.19
48926;BME280;39838;59.938;30.642;2022-10-16T05:19:10;100852.84;;;8.20;85.08
48926;BME280;39838;59.938;30.642;2022-10-16T05:21:37;100863.25;;;8.25;85.54
48926;BME280;39838;59.938;30.642;2022-10-16T05:24:04;100863.34;;;8.30;84.76
48926;BME280;39838;59.938;30.642;2022-10-16T05:26:31;100846.16;;;8.33;85.11
48926;BME280;39838;59.938;30.642;2022-10-16T05:28:58;100855.69;;;8.36;84.34
48926;BME280;39838;59.938;30.642;2022-10-16T05:31:25;100848.75;;;8.35;84.52
48926;BME280;39838;59.938;30.642;2022-10-16T05:33:58;100845.22;;;8.30;84.52
48926;BME280;39838;59.938;30.642;2022-10-16T05:36:27;100852.97;;;8.28;84.81
48926;BME280;39838;59.938;30.642;2022-10-16T05:38:54;100849.53;;;8.29;84.22
48926;BME280;39838;59.938;30.642;2022-10-16T05:41:21;100840.00;;;8.27;84.57
48926;BME280;39838;59.938;30.642;2022-10-16T05:43:51;100846.91;;;8.28;84.19
48926;BME280;39838;59.938;30.642;2022-10-16T05:46:18;100831.28;;;8.21;84.30
48926;BME280;39838;59.938;30.642;2022-10-16T05:48:46;100830.56;;;8.30;84.21
48926;BME280;39838;59.938;30.642;2022-10-16T05:51:14;100818.47;;;8.29;83.77
48926;BME280;39838;59.938;30.642;2022-10-16T05:53:43;100835.88;;;8.38;84.44
48926;BME280;39838;59.938;30.642;2022-10-16T05:56:11;100832.44;;;8.39;83.78
48926;BME280;39838;59.938;30.642;2022-10-16T05:58:38;100835.16;;;8.48;83.92
48926;BME280;39838;59.938;30.642;2022-10-16T06:01:10;100829.03;;;8.41;84.02
48926;BME280;39838;59.938;30.642;2022-10-16T06:03:37;100833.44;;;8.47;83.38
48926;BME280;39838;59.938;30.642;2022-10-16T06:06:08;100826.53;;;8.49;83.73
48926;BME280;39838;59.938;30.642;2022-10-16T06:08:36;100826.63;;;8.55;84.02
48926;BME280;39838;59.938;30.642;2022-10-16T06:11:06;100806.81;;;8.59;83.44
48926;BME280;39838;59.938;30.642;2022-10-16T06:13:34;100813.88;;;8.70;83.53
48926;BME280;39838;59.938;30.642;2022-10-16T06:16:05;100821.66;;;8.73;83.30
48926;BME280;39838;59.938;30.642;2022-10-16T06:18:32;100825.19;;;8.79;83.04
48926;BME280;39838;59.938;30.642;2022-10-16T06:20:59;100827.78;;;8.79;82.29
48926;BME280;39838;59.938;30.642;2022-10-16T06:23:28;100833.91;;;8.84;82.93
48926;BME280;39838;59.938;30.642;2022-10-16T06:26:06;100826.13;;;8.85;82.42
48926;BME280;39838;59.938;30.642;2022-10-16T06:28:33;100828.81;;;8.93;82.40
48926;BME280;39838;59.938;30.642;2022-10-16T06:31:01;100832.34;;;8.98;82.47
48926;BME280;39838;59.938;30.642;2022-10-16T06:33:29;100837.56;;;9.01;82.26
48926;BME280;39838;59.938;30.642;2022-10-16T06:36:01;100827.22;;;9.01;81.79
48926;BME280;39838;59.938;30.642;2022-10-16T06:38:29;100835.84;;;9.03;81.72
48926;BME280;39838;59.938;30.642;2022-10-16T06:40:57;100835.88;;;9.06;81.66
48926;BME280;39838;59.938;30.642;2022-10-16T06:43:25;100807.28;;;8.97;81.50
48926;BME280;39838;59.938;30.642;2022-10-16T06:45:53;100829.16;;;9.23;81.30
48926;BME280;39838;59.938;30.642;2022-10-16T06:48:21;100828.38;;;9.30;81.25
48926;BME280;39838;59.938;30.642;2022-10-16T06:50:56;100816.28;;;9.34;80.86
48926;BME280;39838;59.938;30.642;2022-10-16T06:53:24;100803.44;;;9.43;81.34
48926;BME280;39838;59.938;30.642;2022-10-16T06:55:51;100797.53;;;9.60;80.40
48926;BME280;39838;59.938;30.642;2022-10-16T06:58:18;100800.19;;;9.67;79.97
48926;BME280;39838;59.938;30.642;2022-10-16T07:00:47;100804.56;;;9.71;79.93
48926;BME280;39838;59.938;30.642;2022-10-16T07:03:14;100815.81;;;9.73;79.78
48926;BME280;39838;59.938;30.642;2022-10-16T07:05:42;100811.47;;;9.75;79.20
48926;BME280;39838;59.938;30.642;2022-10-16T07:08:10;100816.69;;;9.75;79.48
48926;BME280;39838;59.938;30.642;2022-10-16T07:10:37;100807.19;;;9.76;79.70
48926;BME280;39838;59.938;30.642;2022-10-16T07:13:04;100803.75;;;9.78;79.31
48926;BME280;39838;59.938;30.642;2022-10-16T07:15:33;100802.03;;;9.82;78.82
48926;BME280;39838;59.938;30.642;2022-10-16T07:18:02;100795.13;;;9.82;78.64
48926;BME280;39838;59.938;30.642;2022-10-16T07:20:29;100799.47;;;9.83;78.91
48926;BME280;39838;59.938;30.642;2022-10-16T07:22:56;100799.47;;;9.83;79.19
48926;BME280;39838;59.938;30.642;2022-10-16T07:25:23;100792.56;;;9.89;79.39
48926;BME280;39838;59.938;30.642;2022-10-16T07:27:50;100797.78;;;9.92;79.22
48926;BME280;39838;59.938;30.642;2022-10-16T07:30:17;100794.38;;;9.96;79.02
48926;BME280;39838;59.938;30.642;2022-10-16T07:32:44;100800.38;;;9.92;79.04
48926;BME280;39838;59.938;30.642;2022-10-16T07:35:13;100784.78;;;9.87;78.57
48926;BME280;39838;59.938;30.642;2022-10-16T07:37:44;100790.88;;;9.92;78.86
48926;BME280;39838;59.938;30.642;2022-10-16T07:40:11;100790.00;;;9.92;78.77
48926;BME280;39838;59.938;30.642;2022-10-16T07:42:38;100787.41;;;9.93;78.81
48926;BME280;39838;59.938;30.642;2022-10-16T07:45:06;100787.44;;;9.96;78.57
48926;BME280;39838;59.938;30.642;2022-10-16T07:47:33;100787.47;;;9.98;78.61
48926;BME280;39838;59.938;30.642;2022-10-16T07:50:03;100789.19;;;10.02;78.07
48926;BME280;39838;59.938;30.642;2022-10-16T07:52:34;100784.88;;;10.02;78.45
48926;BME280;39838;59.938;30.642;2022-10-16T07:55:04;100789.28;;;10.11;77.78
48926;BME280;39838;59.938;30.642;2022-10-16T07:57:31;100779.72;;;10.07;77.69
48926;BME280;39838;59.938;30.642;2022-10-16T07:59:58;100783.22;;;10.10;78.00
48926;BME280;39838;59.938;30.642;2022-10-16T08:02:25;100781.53;;;10.19;78.01
48926;BME280;39838;59.938;30.642;2022-10-16T08:04:52;100791.06;;;10.21;77.52
48926;BME280;39838;59.938;30.642;2022-10-16T08:07:19;100779.88;;;10.27;77.85
48926;BME280;39838;59.938;30.642;2022-10-16T08:09:50;100777.28;;;10.27;77.88
48926;BME280;39838;59.938;30.642;2022-10-16T08:12:18;100770.34;;;10.29;77.35
48926;BME280;39838;59.938;30.642;2022-10-16T08:14:45;100771.22;;;10.28;77.14
48926;BME280;39838;59.938;30.642;2022-10-16T08:17:14;100759.09;;;10.25;76.99
48926;BME280;39838;59.938;30.642;2022-10-16T08:19:44;100767.69;;;10.21;76.98
48926;BME280;39838;59.938;30.642;2022-10-16T08:22:16;100772.88;;;10.21;77.23
48926;BME280;39838;59.938;30.642;2022-10-16T08:24:43;100759.91;;;10.20;77.26
48926;BME280;39838;59.938;30.642;2022-10-16T08:27:12;100760.75;;;10.20;77.11
48926;BME280;39838;59.938;30.642;2022-10-16T08:29:42;100756.41;;;10.15;77.48
48926;BME280;39838;59.938;30.642;2022-10-16T08:32:09;100765.91;;;10.14;76.87
48926;BME280;39838;59.938;30.642;2022-10-16T08:34:37;100772.00;;;10.21;77.54
48926;BME280;39838;59.938;30.642;2022-10-16T08:37:04;100770.38;;;10.33;77.20
48926;BME280;39838;59.938;30.642;2022-10-16T08:39:35;100764.41;;;10.47;76.56
48926;BME280;39838;59.938;30.642;2022-10-16T08:42:31;100755.78;;;10.58;76.03
48926;BME280;39838;59.938;30.642;2022-10-16T08:45:27;100753.22;;;10.68;75.60
48926;BME280;39838;59.938;30.642;2022-10-16T08:48:08;100754.94;;;10.67;75.48
48926;BME280;39838;59.938;30.642;2022-10-16T08:50:41;100750.66;;;10.75;75.61
48926;BME280;39838;59.938;30.642;2022-10-16T08:53:15;100747.19;;;10.72;75.35
48926;BME280;39838;59.938;30.642;2022-10-16T08:55:50;100739.38;;;10.76;74.87
48926;BME280;39838;59.938;30.642;2022-10-16T08:58:20;100739.41;;;10.82;75.42
48926;BME280;39838;59.938;30.642;2022-10-16T09:00:51;100729.91;;;10.84;74.57
48926;BME280;39838;59.938;30.642;2022-10-16T09:03:32;100717.75;;;10.77;74.80
48926;BME280;39838;59.938;30.642;2022-10-16T09:06:14;100724.69;;;10.80;75.14
48926;BME280;39838;59.938;30.642;2022-10-16T09:08:59;100697.78;;;10.59;74.96
48926;BME280;39838;59.938;30.642;2022-10-16T09:11:39;100725.53;;;10.82;74.66
48926;BME280;39838;59.938;30.642;2022-10-16T09:14:28;100686.53;;;10.65;74.85
48926;BME280;39838;59.938;30.642;2022-10-16T09:17:12;100696.09;;;10.80;75.04
48926;BME280;39838;59.938;30.642;2022-10-16T09:19:45;100690.03;;;10.94;74.61
48926;BME280;39838;59.938;30.642;2022-10-16T09:22:16;100718.69;;;11.14;74.14
48926;BME280;39838;59.938;30.642;2022-10-16T09:24:43;100719.53;;;11.15;73.82
48926;BME280;39838;59.938;30.642;2022-10-16T09:27:11;100725.59;;;11.08;73.97
48926;BME280;39838;59.938;30.642;2022-10-16T09:29:40;100729.06;;;11.07;74.45
48926;BME280;39838;59.938;30.642;2022-10-16T09:32:14;100703.03;;;10.88;74.11
48926;BME280;39838;59.938;30.642;2022-10-16T09:34:48;100708.19;;;10.76;74.23
48926;BME280;39838;59.938;30.642;2022-10-16T09:37:19;100684.75;;;10.52;74.42
48926;BME280;39838;59.938;30.642;2022-10-16T09:39:48;100713.38;;;10.69;74.51
48926;BME280;39838;59.938;30.642;2022-10-16T09:42:17;100725.47;;;10.60;74.79
48926;BME280;39838;59.938;30.642;2022-10-16T09:44:49;100702.91;;;10.38;74.64
48926;BME280;39838;59.938;30.642;2022-10-16T09:47:22;100718.56;;;10.59;74.84
48926;BME280;39838;59.938;30.642;2022-10-16T09:49:53;100685.56;;;10.32;74.75
48926;BME280;39838;59.938;30.642;2022-10-16T09:52:22;100728.03;;;10.50;75.15
48926;BME280;39838;59.938;30.642;2022-10-16T09:54:50;100728.03;;;10.44;75.23
48926;BME280;39838;59.938;30.642;2022-10-16T09:57:18;100726.28;;;10.43;75.21
48926;BME280;39838;59.938;30.642;2022-10-16T09:59:48;100701.16;;;10.37;75.64
48926;BME280;39838;59.938;30.642;2022-10-16T10:02:19;100710.69;;;10.43;75.74
48926;BME280;39838;59.938;30.642;2022-10-16T10:04:51;100703.78;;;10.49;75.74
48926;BME280;39838;59.938;30.642;2022-10-16T10:07:24;100698.63;;;10.54;75.57
48926;BME280;39838;59.938;30.642;2022-10-16T10:09:54;100709.91;;;10.59;74.98
48926;BME280;39838;59.938;30.642;2022-10-16T10:12:23;100700.38;;;10.61;75.22
48926;BME280;39838;59.938;30.642;2022-10-16T10:14:55;100725.47;;;10.59;75.19
48926;BME280;39838;59.938;30.642;2022-10-16T10:17:26;100715.06;;;10.56;75.20
48926;BME280;39838;59.938;30.642;2022-10-16T10:19:57;100722.88;;;10.59;75.44
48926;BME280;39838;59.938;30.642;2022-10-16T10:22:31;100708.13;;;10.56;75.41
48926;BME280;39838;59.938;30.642;2022-10-16T10:25:15;100703.00;;;10.64;75.06
48926;BME280;39838;59.938;30.642;2022-10-16T10:28:02;100709.03;;;10.63;75.23
48926;BME280;39838;59.938;30.642;2022-10-16T10:30:40;100711.63;;;10.60;75.26
48926;BME280;39838;59.938;30.642;2022-10-16T10:33:23;100722.00;;;10.55;75.49
48926;BME280;39838;59.938;30.642;2022-10-16T10:35:58;100711.56;;;10.49;75.70
48926;BME280;39838;59.938;30.642;2022-10-16T10:38:37;100737.56;;;10.49;75.64
48926;BME280;39838;59.938;30.642;2022-10-16T10:41:16;100728.91;;;10.53;75.83
48926;BME280;39838;59.938;30.642;2022-10-16T10:43:55;100702.03;;;10.39;75.91
48926;BME280;39838;59.938;30.642;2022-10-16T10:46:34;100734.97;;;10.51;76.08
48926;BME280;39838;59.938;30.642;2022-10-16T10:49:17;100731.50;;;10.56;75.58
48926;BME280;39838;59.938;30.642;2022-10-16T10:51:58;100734.13;;;10.56;75.93
48926;BME280;39838;59.938;30.642;2022-10-16T10:54:33;100729.75;;;10.48;76.55
48926;BME280;39838;59.938;30.642;2022-10-16T10:57:10;100740.16;;;10.49;76.92
48926;BME280;39838;59.938;30.642;2022-10-16T10:59:56;100737.56;;;10.49;77.16
48926;BME280;39838;59.938;30.642;2022-10-16T11:02:31;100735.81;;;10.47;76.47
48926;BME280;39838;59.938;30.642;2022-10-16T11:05:16;100733.19;;;10.37;77.22
48926;BME280;39838;59.938;30.642;2022-10-16T11:07:49;100688.00;;;10.05;77.17
48926;BME280;39838;59.938;30.642;2022-10-16T11:10:21;100699.25;;;10.04;77.03
48926;BME280;39838;59.938;30.642;2022-10-16T11:12:52;100718.34;;;10.18;77.49
48926;BME280;39838;59.938;30.642;2022-10-16T11:15:26;100719.16;;;10.08;77.09
48926;BME280;39838;59.938;30.642;2022-10-16T11:18:01;100728.66;;;10.06;77.67
48926;BME280;39838;59.938;30.642;2022-10-16T11:20:32;100722.59;;;10.07;77.56
48926;BME280;39838;59.938;30.642;2022-10-16T11:23:08;100726.94;;;10.03;77.28
48926;BME280;39838;59.938;30.642;2022-10-16T11:25:42;100726.84;;;9.94;77.55
48926;BME280;39838;59.938;30.642;2022-10-16T11:28:13;100732.88;;;9.85;78.38
48926;BME280;39838;59.938;30.642;2022-10-16T11:30:44;100712.06;;;9.76;78.54
48926;BME280;39838;59.938;30.642;2022-10-16T11:33:25;100719.81;;;9.73;78.35
48926;BME280;39838;59.938;30.642;2022-10-16T11:36:01;100715.44;;;9.68;78.72
48926;BME280;39838;59.938;30.642;2022-10-16T11:38:34;100718.88;;;9.65;79.00
48926;BME280;39838;59.938;30.642;2022-10-16T11:41:15;100696.31;;;9.49;79.42
48926;BME280;39838;59.938;30.642;2022-10-16T11:43:48;100710.19;;;9.58;80.11
48926;BME280;39838;59.938;30.642;2022-10-16T11:46:21;100709.31;;;9.56;79.95
48926;BME280;39838;59.938;30.642;2022-10-16T11:48:57;100714.53;;;9.60;80.30
48926;BME280;39838;59.938;30.642;2022-10-16T11:51:36;100724.94;;;9.63;80.05
48926;BME280;39838;59.938;30.642;2022-10-16T11:54:12;100713.66;;;9.59;80.00
48926;BME280;39838;59.938;30.642;2022-10-16T11:56:45;100730.09;;;9.61;80.16
48926;BME280;39838;59.938;30.642;2022-10-16T11:59:20;100706.69;;;9.53;80.72
48926;BME280;39838;59.938;30.642;2022-10-16T12:01:53;100686.69;;;9.39;80.62
48926;BME280;39838;59.938;30.642;2022-10-16T12:04:33;100664.97;;;9.26;80.63
48926;BME280;39838;59.938;30.642;2022-10-16T12:07:14;100700.53;;;9.39;81.10
48926;BME280;39838;59.938;30.642;2022-10-16T12:09:45;100714.34;;;9.37;81.90
48926;BME280;39838;59.938;30.642;2022-10-16T12:12:26;100713.44;;;9.28;81.83
48926;BME280;39838;59.938;30.642;2022-10-16T12:15:18;100716.88;;;9.29;82.44
48926;BME280;39838;59.938;30.642;2022-10-16T12:17:47;100715.16;;;9.33;82.41
48926;BME280;39838;59.938;30.642;2022-10-16T12:20:38;100722.94;;;9.34;82.59
48926;BME280;39838;59.938;30.642;2022-10-16T12:23:20;100711.75;;;9.38;82.05
48926;BME280;39838;59.938;30.642;2022-10-16T12:25:54;100696.16;;;9.34;82.31
48926;BME280;39838;59.938;30.642;2022-10-16T12:28:25;100710.94;;;9.42;82.09
48926;BME280;39838;59.938;30.642;2022-10-16T12:30:56;100715.28;;;9.43;82.66
48926;BME280;39838;59.938;30.642;2022-10-16T12:33:25;100723.06;;;9.48;83.01
48926;BME280;39838;59.938;30.642;2022-10-16T12:35:56;100711.81;;;9.46;83.13
48926;BME280;39838;59.938;30.642;2022-10-16T12:38:27;100678.75;;;9.20;83.03
48926;BME280;39838;59.938;30.642;2022-10-16T12:40:58;100644.03;;;9.00;83.43
48926;BME280;39838;59.938;30.642;2022-10-16T12:43:38;100697.88;;;9.35;83.18
48926;BME280;39838;59.938;30.642;2022-10-16T12:46:23;100661.47;;;9.19;83.37
48926;BME280;39838;59.938;30.642;2022-10-16T12:48:51;100692.81;;;9.45;83.94
48926;BME280;39838;59.938;30.642;2022-10-16T12:51:25;100681.50;;;9.40;83.45
48926;BME280;39838;59.938;30.642;2022-10-16T12:54:03;100688.53;;;9.52;83.69
48926;BME280;39838;59.938;30.642;2022-10-16T12:56:41;100688.53;;;9.49;83.88
48926;BME280;39838;59.938;30.642;2022-10-16T12:59:26;100684.16;;;9.45;84.64
48926;BME280;39838;59.938;30.642;2022-10-16T13:05:13;100665.09;;;9.37;84.26
48926;BME280;39838;59.938;30.642;2022-10-16T13:07:55;100666.72;;;9.25;84.82
48926;BME280;39838;59.938;30.642;2022-10-16T13:10:30;100676.28;;;9.31;85.43